sensor_id;sensor_type;location;lat;lon;timestamp;P1;durP1;ratioP1;P2;durP2;ratioP2
10094;SDS011;5086;50.830;7.102;2023-04-15T00:02:25;8.55;;;4.22;;
10094;SDS011;5086;50.830;7.102;2023-04-15T00:04:53;8.07;;;4.43;;
10094;SDS011;5086;50.830;7.102;2023-04-15T00:07:20;7.20;;;4.13;;
10094;SDS011;5086;50.830;7.102;2023-04-15T00:09:47;7.85;;;4.15;;
10094;SDS011;5086;50.830;7.102;2023-04-15T00:12:14;5.97;;;3.55;;
10094;SDS011;5086;50.830;7.102;2023-04-15T00:14:41;6.15;;;3.40;;
10094;SDS011;5086;50.830;7.102;2023-04-15T00:17:09;5.18;;;2.80;;
10094;SDS011;5086;50.830;7.102;2023-04-15T00:19:37;8.88;;;3.72;;
10094;SDS011;5086;50.830;7.102;2023-04-15T00:22:04;6.22;;;3.75;;
10094;SDS011;5086;50.830;7.102;2023-04-15T00:24:32;7.10;;;3.38;;
10094;SDS011;5086;50.830;7.102;2023-04-15T00:26:59;8.02;;;4.45;;
10094;SDS011;5086;50.830;7.102;2023-04-15T00:29:26;7.57;;;4.10;;
10094;SDS011;5086;50.830;7.102;2023-04-15T00:31:53;20.17;;;5.53;;
10094;SDS011;5086;50.830;7.102;2023-04-15T00:34:20;6.75;;;4.45;;
10094;SDS011;5086;50.830;7.102;2023-04-15T00:36:49;11.43;;;4.20;;
10094;SDS011;5086;50.830;7.102;2023-04-15T00:39:16;8.68;;;4.25;;
10094;SDS011;5086;50.830;7.102;2023-04-15T00:41:43;8.18;;;4.55;;
10094;SDS011;5086;50.830;7.102;2023-04-15T00:44:11;5.47;;;3.33;;
10094;SDS011;5086;50.830;7.102;2023-04-15T00:46:38;4.72;;;3.63;;
10094;SDS011;5086;50.830;7.102;2023-04-15T00:49:06;6.35;;;3.13;;
10094;SDS011;5086;50.830;7.102;2023-04-15T00:51:33;6.30;;;3.30;;
10094;SDS011;5086;50.830;7.102;2023-04-15T00:54:03;8.15;;;3.00;;
10094;SDS011;5086;50.830;7.102;2023-04-15T00:56:33;4.78;;;3.40;;
10094;SDS011;5086;50.830;7.102;2023-04-15T00:59:02;4.38;;;3.05;;
10094;SDS011;5086;50.830;7.102;2023-04-15T01:01:30;6.63;;;3.42;;
10094;SDS011;5086;50.830;7.102;2023-04-15T01:03:59;7.60;;;2.97;;
10094;SDS011;5086;50.830;7.102;2023-04-15T01:06:26;5.32;;;3.30;;
10094;SDS011;5086;50.830;7.102;2023-04-15T01:08:56;6.95;;;3.78;;
10094;SDS011;5086;50.830;7.102;2023-04-15T01:11:25;6.72;;;3.22;;
10094;SDS011;5086;50.830;7.102;2023-04-15T01:13:53;6.43;;;3.78;;
10094;SDS011;5086;50.830;7.102;2023-04-15T01:16:22;6.00;;;3.05;;
10094;SDS011;5086;50.830;7.102;2023-04-15T01:18:49;5.38;;;2.85;;
10094;SDS011;5086;50.830;7.102;2023-04-15T01:21:16;6.55;;;3.65;;
10094;SDS011;5086;50.830;7.102;2023-04-15T01:23:44;7.88;;;3.35;;
10094;SDS011;5086;50.830;7.102;2023-04-15T01:26:14;8.40;;;2.75;;
10094;SDS011;5086;50.830;7.102;2023-04-15T01:28:42;5.75;;;3.60;;
10094;SDS011;5086;50.830;7.102;2023-04-15T01:31:09;5.60;;;3.67;;
10094;SDS011;5086;50.830;7.102;2023-04-15T01:33:37;4.85;;;2.83;;
10094;SDS011;5086;50.830;7.102;2023-04-15T01:36:06;5.45;;;3.75;;
10094;SDS011;5086;50.830;7.102;2023-04-15T01:38:35;7.47;;;3.90;;
10094;SDS011;5086;50.830;7.102;2023-04-15T01:41:02;9.25;;;3.50;;
10094;SDS011;5086;50.830;7.102;2023-04-15T01:43:33;8.52;;;3.70;;
10094;SDS011;5086;50.830;7.102;2023-04-15T01:46:00;8.60;;;3.30;;
10094;SDS011;5086;50.830;7.102;2023-04-15T01:48:27;7.45;;;3.33;;
10094;SDS011;5086;50.830;7.102;2023-04-15T01:50:54;12.75;;;3.65;;
10094;SDS011;5086;50.830;7.102;2023-04-15T01:53:22;8.15;;;3.25;;
10094;SDS011;5086;50.830;7.102;2023-04-15T01:55:50;5.97;;;3.75;;
10094;SDS011;5086;50.830;7.102;2023-04-15T01:58:17;7.05;;;3.63;;
10094;SDS011;5086;50.830;7.102;2023-04-15T02:00:46;4.80;;;3.45;;
10094;SDS011;5086;50.830;7.102;2023-04-15T02:03:13;6.22;;;3.50;;
10094;SDS011;5086;50.830;7.102;2023-04-15T02:05:40;7.90;;;3.60;;
10094;SDS011;5086;50.830;7.102;2023-04-15T02:08:07;7.82;;;3.78;;
10094;SDS011;5086;50.830;7.102;2023-04-15T02:10:35;5.55;;;3.72;;
10094;SDS011;5086;50.830;7.102;2023-04-15T02:13:02;6.22;;;3.67;;
10094;SDS011;5086;50.830;7.102;2023-04-15T02:15:28;5.07;;;3.58;;
10094;SDS011;5086;50.830;7.102;2023-04-15T02:17:57;19.67;;;4.25;;
10094;SDS011;5086;50.830;7.102;2023-04-15T02:20:25;14.27;;;4.43;;
10094;SDS011;5086;50.830;7.102;2023-04-15T02:22:54;5.65;;;3.83;;
10094;SDS011;5086;50.830;7.102;2023-04-15T02:25:21;7.80;;;3.60;;
10094;SDS011;5086;50.830;7.102;2023-04-15T02:27:48;6.80;;;3.75;;
10094;SDS011;5086;50.830;7.102;2023-04-15T02:30:15;5.90;;;3.30;;
10094;SDS011;5086;50.830;7.102;2023-04-15T02:32:43;7.78;;;3.47;;
10094;SDS011;5086;50.830;7.102;2023-04-15T02:35:11;6.38;;;3.50;;
10094;SDS011;5086;50.830;7.102;2023-04-15T02:37:38;7.55;;;3.65;;
10094;SDS011;5086;50.830;7.102;2023-04-15T02:40:07;8.32;;;3.83;;
10094;SDS011;5086;50.830;7.102;2023-04-15T02:42:36;5.18;;;3.72;;
10094;SDS011;5086;50.830;7.102;2023-04-15T02:45:04;8.30;;;4.53;;
10094;SDS011;5086;50.830;7.102;2023-04-15T02:47:32;16.00;;;5.38;;
10094;SDS011;5086;50.830;7.102;2023-04-15T02:50:00;8.68;;;4.85;;
10094;SDS011;5086;50.830;7.102;2023-04-15T02:52:29;15.88;;;5.65;;
10094;SDS011;5086;50.830;7.102;2023-04-15T02:54:56;6.38;;;4.55;;
10094;SDS011;5086;50.830;7.102;2023-04-15T02:57:25;11.60;;;4.70;;
10094;SDS011;5086;50.830;7.102;2023-04-15T02:59:52;6.88;;;3.90;;
10094;SDS011;5086;50.830;7.102;2023-04-15T03:02:20;5.18;;;3.55;;
10094;SDS011;5086;50.830;7.102;2023-04-15T03:04:46;7.30;;;3.63;;
10094;SDS011;5086;50.830;7.102;2023-04-15T03:07:14;7.07;;;3.65;;
10094;SDS011;5086;50.830;7.102;2023-04-15T03:09:42;7.47;;;3.90;;
10094;SDS011;5086;50.830;7.102;2023-04-15T03:12:09;6.97;;;3.15;;
10094;SDS011;5086;50.830;7.102;2023-04-15T03:14:36;5.80;;;3.28;;
10094;SDS011;5086;50.830;7.102;2023-04-15T03:17:03;6.00;;;3.10;;
10094;SDS011;5086;50.830;7.102;2023-04-15T03:19:30;4.85;;;3.67;;
10094;SDS011;5086;50.830;7.102;2023-04-15T03:21:58;5.22;;;3.22;;
10094;SDS011;5086;50.830;7.102;2023-04-15T03:24:25;11.13;;;4.25;;
10094;SDS011;5086;50.830;7.102;2023-04-15T03:26:55;14.27;;;7.45;;
10094;SDS011;5086;50.830;7.102;2023-04-15T03:29:22;7.45;;;4.65;;
10094;SDS011;5086;50.830;7.102;2023-04-15T03:31:49;8.15;;;4.60;;
10094;SDS011;5086;50.830;7.102;2023-04-15T03:34:17;6.82;;;3.40;;
10094;SDS011;5086;50.830;7.102;2023-04-15T03:36:44;9.02;;;3.33;;
10094;SDS011;5086;50.830;7.102;2023-04-15T03:39:12;11.13;;;4.57;;
10094;SDS011;5086;50.830;7.102;2023-04-15T03:41:38;5.00;;;3.25;;
10094;SDS011;5086;50.830;7.102;2023-04-15T03:44:07;6.78;;;3.88;;
10094;SDS011;5086;50.830;7.102;2023-04-15T03:46:34;11.32;;;5.45;;
10094;SDS011;5086;50.830;7.102;2023-04-15T03:49:01;7.35;;;3.55;;
10094;SDS011;5086;50.830;7.102;2023-04-15T03:51:28;10.50;;;4.43;;
10094;SDS011;5086;50.830;7.102;2023-04-15T03:53:55;10.75;;;6.38;;
10094;SDS011;5086;50.830;7.102;2023-04-15T03:56:22;9.35;;;6.45;;
10094;SDS011;5086;50.830;7.102;2023-04-15T03:58:49;11.88;;;6.72;;
10094;SDS011;5086;50.830;7.102;2023-04-15T04:01:18;11.05;;;5.55;;
10094;SDS011;5086;50.830;7.102;2023-04-15T04:03:45;17.90;;;7.18;;
10094;SDS011;5086;50.830;7.102;2023-04-15T04:06:12;10.55;;;6.60;;
10094;SDS011;5086;50.830;7.102;2023-04-15T04:08:39;13.77;;;7.60;;
10094;SDS011;5086;50.830;7.102;2023-04-15T04:11:06;8.27;;;4.25;;
10094;SDS011;5086;50.830;7.102;2023-04-15T04:13:33;6.13;;;2.90;;
10094;SDS011;5086;50.830;7.102;2023-04-15T04:16:00;7.38;;;3.45;;
10094;SDS011;5086;50.830;7.102;2023-04-15T04:18:30;5.90;;;3.58;;
10094;SDS011;5086;50.830;7.102;2023-04-15T04:20:57;8.20;;;3.65;;
10094;SDS011;5086;50.830;7.102;2023-04-15T04:23:24;4.75;;;3.28;;
10094;SDS011;5086;50.830;7.102;2023-04-15T04:25:51;5.68;;;3.80;;
10094;SDS011;5086;50.830;7.102;2023-04-15T04:28:18;6.68;;;4.10;;
10094;SDS011;5086;50.830;7.102;2023-04-15T04:30:45;9.98;;;6.13;;
10094;SDS011;5086;50.830;7.102;2023-04-15T04:33:12;10.07;;;6.72;;
10094;SDS011;5086;50.830;7.102;2023-04-15T04:35:41;10.82;;;6.80;;
10094;SDS011;5086;50.830;7.102;2023-04-15T04:38:08;15.52;;;5.63;;
10094;SDS011;5086;50.830;7.102;2023-04-15T04:40:35;10.57;;;5.60;;
10094;SDS011;5086;50.830;7.102;2023-04-15T04:43:02;9.75;;;6.53;;
10094;SDS011;5086;50.830;7.102;2023-04-15T04:45:30;9.18;;;5.47;;
10094;SDS011;5086;50.830;7.102;2023-04-15T04:47:57;10.23;;;4.88;;
10094;SDS011;5086;50.830;7.102;2023-04-15T04:50:24;29.10;;;4.78;;
10094;SDS011;5086;50.830;7.102;2023-04-15T04:52:53;7.47;;;4.05;;
10094;SDS011;5086;50.830;7.102;2023-04-15T04:55:19;4.90;;;3.88;;
10094;SDS011;5086;50.830;7.102;2023-04-15T04:57:46;11.70;;;4.07;;
10094;SDS011;5086;50.830;7.102;2023-04-15T05:00:13;4.93;;;3.25;;
10094;SDS011;5086;50.830;7.102;2023-04-15T05:02:41;6.75;;;3.20;;
10094;SDS011;5086;50.830;7.102;2023-04-15T05:05:08;7.32;;;3.45;;
10094;SDS011;5086;50.830;7.102;2023-04-15T05:07:35;6.07;;;2.80;;
10094;SDS011;5086;50.830;7.102;2023-04-15T05:10:06;5.32;;;3.20;;
10094;SDS011;5086;50.830;7.102;2023-04-15T05:12:34;4.65;;;3.35;;
10094;SDS011;5086;50.830;7.102;2023-04-15T05:15:02;8.65;;;3.50;;
10094;SDS011;5086;50.830;7.102;2023-04-15T05:17:30;4.22;;;2.75;;
10094;SDS011;5086;50.830;7.102;2023-04-15T05:19:59;7.03;;;3.35;;
10094;SDS011;5086;50.830;7.102;2023-04-15T05:22:26;11.57;;;3.10;;
10094;SDS011;5086;50.830;7.102;2023-04-15T05:24:53;6.05;;;2.97;;
10094;SDS011;5086;50.830;7.102;2023-04-15T05:27:21;7.35;;;3.45;;
10094;SDS011;5086;50.830;7.102;2023-04-15T05:29:49;7.28;;;3.45;;
10094;SDS011;5086;50.830;7.102;2023-04-15T05:32:16;6.70;;;3.42;;
10094;SDS011;5086;50.830;7.102;2023-04-15T05:34:43;7.40;;;4.45;;
10094;SDS011;5086;50.830;7.102;2023-04-15T05:37:10;9.55;;;5.70;;
10094;SDS011;5086;50.830;7.102;2023-04-15T05:39:44;9.25;;;4.65;;
10094;SDS011;5086;50.830;7.102;2023-04-15T05:42:12;16.30;;;4.20;;
10094;SDS011;5086;50.830;7.102;2023-04-15T05:44:41;9.23;;;3.92;;
10094;SDS011;5086;50.830;7.102;2023-04-15T05:47:08;9.30;;;3.65;;
10094;SDS011;5086;50.830;7.102;2023-04-15T05:49:35;6.53;;;3.55;;
10094;SDS011;5086;50.830;7.102;2023-04-15T05:52:02;10.05;;;4.72;;
10094;SDS011;5086;50.830;7.102;2023-04-15T05:54:29;7.68;;;4.03;;
10094;SDS011;5086;50.830;7.102;2023-04-15T05:56:57;5.90;;;3.47;;
10094;SDS011;5086;50.830;7.102;2023-04-15T05:59:24;9.95;;;3.60;;
10094;SDS011;5086;50.830;7.102;2023-04-15T06:01:54;6.95;;;3.05;;
10094;SDS011;5086;50.830;7.102;2023-04-15T06:04:22;5.57;;;3.42;;
10094;SDS011;5086;50.830;7.102;2023-04-15T06:06:49;7.65;;;4.03;;
10094;SDS011;5086;50.830;7.102;2023-04-15T06:09:16;8.13;;;3.30;;
10094;SDS011;5086;50.830;7.102;2023-04-15T06:11:43;7.30;;;3.40;;
10094;SDS011;5086;50.830;7.102;2023-04-15T06:14:10;5.93;;;3.60;;
10094;SDS011;5086;50.830;7.102;2023-04-15T06:16:37;5.57;;;3.83;;
10094;SDS011;5086;50.830;7.102;2023-04-15T06:19:05;7.70;;;3.75;;
10094;SDS011;5086;50.830;7.102;2023-04-15T06:21:32;8.32;;;4.10;;
10094;SDS011;5086;50.830;7.102;2023-04-15T06:23:59;5.80;;;3.90;;
10094;SDS011;5086;50.830;7.102;2023-04-15T06:26:27;5.57;;;3.53;;
10094;SDS011;5086;50.830;7.102;2023-04-15T06:28:55;8.57;;;3.75;;
10094;SDS011;5086;50.830;7.102;2023-04-15T06:31:22;6.38;;;3.42;;
10094;SDS011;5086;50.830;7.102;2023-04-15T06:33:48;5.78;;;3.45;;
10094;SDS011;5086;50.830;7.102;2023-04-15T06:36:17;5.28;;;3.83;;
10094;SDS011;5086;50.830;7.102;2023-04-15T06:38:44;8.38;;;4.28;;
10094;SDS011;5086;50.830;7.102;2023-04-15T06:41:10;5.25;;;3.38;;
10094;SDS011;5086;50.830;7.102;2023-04-15T06:43:38;9.50;;;4.10;;
10094;SDS011;5086;50.830;7.102;2023-04-15T06:46:05;10.40;;;3.92;;
10094;SDS011;5086;50.830;7.102;2023-04-15T06:48:32;8.05;;;3.45;;
10094;SDS011;5086;50.830;7.102;2023-04-15T06:50:58;6.80;;;3.80;;
10094;SDS011;5086;50.830;7.102;2023-04-15T06:53:27;6.68;;;4.38;;
10094;SDS011;5086;50.830;7.102;2023-04-15T06:55:53;9.35;;;4.05;;
10094;SDS011;5086;50.830;7.102;2023-04-15T06:58:20;12.32;;;5.00;;
10094;SDS011;5086;50.830;7.102;2023-04-15T07:00:47;29.65;;;5.20;;
10094;SDS011;5086;50.830;7.102;2023-04-15T07:03:14;20.92;;;5.32;;
10094;SDS011;5086;50.830;7.102;2023-04-15T07:05:41;18.10;;;4.65;;
10094;SDS011;5086;50.830;7.102;2023-04-15T07:08:08;8.40;;;4.65;;
10094;SDS011;5086;50.830;7.102;2023-04-15T07:10:36;7.53;;;3.63;;
10094;SDS011;5086;50.830;7.102;2023-04-15T07:13:03;10.48;;;4.15;;
10094;SDS011;5086;50.830;7.102;2023-04-15T07:15:32;8.30;;;4.35;;
10094;SDS011;5086;50.830;7.102;2023-04-15T07:17:59;6.05;;;3.90;;
10094;SDS011;5086;50.830;7.102;2023-04-15T07:20:26;8.93;;;4.80;;
10094;SDS011;5086;50.830;7.102;2023-04-15T07:22:53;9.20;;;4.88;;
10094;SDS011;5086;50.830;7.102;2023-04-15T07:25:19;15.77;;;4.88;;
10094;SDS011;5086;50.830;7.102;2023-04-15T07:27:48;6.93;;;4.18;;
10094;SDS011;5086;50.830;7.102;2023-04-15T07:30:15;6.85;;;4.40;;
10094;SDS011;5086;50.830;7.102;2023-04-15T07:32:42;13.35;;;4.50;;
10094;SDS011;5086;50.830;7.102;2023-04-15T07:35:09;13.35;;;5.05;;
10094;SDS011;5086;50.830;7.102;2023-04-15T07:37:35;10.75;;;4.80;;
10094;SDS011;5086;50.830;7.102;2023-04-15T07:40:03;10.13;;;4.75;;
10094;SDS011;5086;50.830;7.102;2023-04-15T07:42:31;10.60;;;4.65;;
10094;SDS011;5086;50.830;7.102;2023-04-15T07:44:59;9.10;;;4.55;;
10094;SDS011;5086;50.830;7.102;2023-04-15T07:47:26;9.05;;;4.65;;
10094;SDS011;5086;50.830;7.102;2023-04-15T07:49:56;8.75;;;5.10;;
10094;SDS011;5086;50.830;7.102;2023-04-15T07:52:26;8.52;;;4.47;;
10094;SDS011;5086;50.830;7.102;2023-04-15T07:54:52;10.57;;;4.80;;
10094;SDS011;5086;50.830;7.102;2023-04-15T07:57:19;6.88;;;3.72;;
10094;SDS011;5086;50.830;7.102;2023-04-15T07:59:46;8.75;;;4.35;;
10094;SDS011;5086;50.830;7.102;2023-04-15T08:02:14;5.57;;;3.85;;
10094;SDS011;5086;50.830;7.102;2023-04-15T08:04:41;6.55;;;3.35;;
10094;SDS011;5086;50.830;7.102;2023-04-15T08:07:08;20.08;;;4.32;;
10094;SDS011;5086;50.830;7.102;2023-04-15T08:09:35;5.53;;;3.35;;
10094;SDS011;5086;50.830;7.102;2023-04-15T08:12:01;6.57;;;3.20;;
10094;SDS011;5086;50.830;7.102;2023-04-15T08:14:29;3.72;;;2.30;;
10094;SDS011;5086;50.830;7.102;2023-04-15T08:16:56;5.47;;;2.58;;
10094;SDS011;5086;50.830;7.102;2023-04-15T08:19:24;4.05;;;2.58;;
10094;SDS011;5086;50.830;7.102;2023-04-15T08:21:50;5.35;;;3.20;;
10094;SDS011;5086;50.830;7.102;2023-04-15T08:24:17;4.70;;;2.40;;
10094;SDS011;5086;50.830;7.102;2023-04-15T08:26:44;2.45;;;2.05;;
10094;SDS011;5086;50.830;7.102;2023-04-15T08:29:11;4.68;;;2.38;;
10094;SDS011;5086;50.830;7.102;2023-04-15T08:31:38;4.93;;;2.75;;
10094;SDS011;5086;50.830;7.102;2023-04-15T08:34:05;6.80;;;2.85;;
10094;SDS011;5086;50.830;7.102;2023-04-15T08:36:34;3.58;;;2.20;;
10094;SDS011;5086;50.830;7.102;2023-04-15T08:39:01;4.55;;;2.67;;
10094;SDS011;5086;50.830;7.102;2023-04-15T08:41:30;5.72;;;2.60;;
10094;SDS011;5086;50.830;7.102;2023-04-15T08:44:04;3.45;;;2.17;;
10094;SDS011;5086;50.830;7.102;2023-04-15T08:46:31;6.15;;;1.98;;
10094;SDS011;5086;50.830;7.102;2023-04-15T08:48:58;2.13;;;1.70;;
10094;SDS011;5086;50.830;7.102;2023-04-15T08:51:28;2.55;;;1.60;;
10094;SDS011;5086;50.830;7.102;2023-04-15T08:53:57;1.50;;;1.40;;
10094;SDS011;5086;50.830;7.102;2023-04-15T08:56:25;5.57;;;1.63;;
10094;SDS011;5086;50.830;7.102;2023-04-15T08:58:53;2.00;;;1.52;;
10094;SDS011;5086;50.830;7.102;2023-04-15T09:01:20;1.85;;;1.42;;
10094;SDS011;5086;50.830;7.102;2023-04-15T09:03:47;1.83;;;1.50;;
10094;SDS011;5086;50.830;7.102;2023-04-15T09:06:15;5.53;;;1.80;;
10094;SDS011;5086;50.830;7.102;2023-04-15T09:08:42;2.65;;;1.75;;
10094;SDS011;5086;50.830;7.102;2023-04-15T09:11:10;2.67;;;1.60;;
10094;SDS011;5086;50.830;7.102;2023-04-15T09:13:37;6.38;;;1.50;;
10094;SDS011;5086;50.830;7.102;2023-04-15T09:16:04;3.30;;;1.65;;
10094;SDS011;5086;50.830;7.102;2023-04-15T09:18:32;2.30;;;1.23;;
10094;SDS011;5086;50.830;7.102;2023-04-15T09:21:03;1.48;;;1.30;;
10094;SDS011;5086;50.830;7.102;2023-04-15T09:23:32;2.85;;;1.33;;
10094;SDS011;5086;50.830;7.102;2023-04-15T09:25:59;1.90;;;1.50;;
10094;SDS011;5086;50.830;7.102;2023-04-15T09:28:28;1.55;;;1.20;;
10094;SDS011;5086;50.830;7.102;2023-04-15T09:30:55;3.45;;;1.33;;
10094;SDS011;5086;50.830;7.102;2023-04-15T09:33:22;2.80;;;1.33;;
10094;SDS011;5086;50.830;7.102;2023-04-15T09:35:56;1.40;;;1.23;;
10094;SDS011;5086;50.830;7.102;2023-04-15T09:38:25;1.30;;;1.20;;
10094;SDS011;5086;50.830;7.102;2023-04-15T09:40:51;2.13;;;1.40;;
10094;SDS011;5086;50.830;7.102;2023-04-15T09:43:19;1.52;;;1.30;;
10094;SDS011;5086;50.830;7.102;2023-04-15T09:45:48;1.10;;;1.00;;
10094;SDS011;5086;50.830;7.102;2023-04-15T09:48:17;1.50;;;1.30;;
10094;SDS011;5086;50.830;7.102;2023-04-15T09:50:46;1.63;;;1.25;;
10094;SDS011;5086;50.830;7.102;2023-04-15T09:53:17;1.95;;;1.38;;
10094;SDS011;5086;50.830;7.102;2023-04-15T09:55:45;1.70;;;1.33;;
10094;SDS011;5086;50.830;7.102;2023-04-15T09:58:19;1.40;;;1.30;;
10094;SDS011;5086;50.830;7.102;2023-04-15T10:00:48;2.63;;;1.45;;
10094;SDS011;5086;50.830;7.102;2023-04-15T10:03:17;2.08;;;1.63;;
10094;SDS011;5086;50.830;7.102;2023-04-15T10:05:47;1.55;;;1.45;;
10094;SDS011;5086;50.830;7.102;2023-04-15T10:08:16;6.47;;;1.60;;
10094;SDS011;5086;50.830;7.102;2023-04-15T10:10:44;2.75;;;1.50;;
10094;SDS011;5086;50.830;7.102;2023-04-15T10:13:12;1.50;;;1.40;;
10094;SDS011;5086;50.830;7.102;2023-04-15T10:15:41;1.90;;;1.70;;
10094;SDS011;5086;50.830;7.102;2023-04-15T10:18:13;1.42;;;1.33;;
10094;SDS011;5086;50.830;7.102;2023-04-15T10:20:42;1.90;;;1.70;;
10094;SDS011;5086;50.830;7.102;2023-04-15T10:23:09;1.50;;;1.40;;
10094;SDS011;5086;50.830;7.102;2023-04-15T10:25:37;1.30;;;1.20;;
10094;SDS011;5086;50.830;7.102;2023-04-15T10:28:05;4.10;;;1.35;;
10094;SDS011;5086;50.830;7.102;2023-04-15T10:30:33;3.60;;;1.50;;
10094;SDS011;5086;50.830;7.102;2023-04-15T10:33:00;1.65;;;1.55;;
10094;SDS011;5086;50.830;7.102;2023-04-15T10:35:29;1.73;;;1.50;;
10094;SDS011;5086;50.830;7.102;2023-04-15T10:37:57;1.58;;;1.40;;
10094;SDS011;5086;50.830;7.102;2023-04-15T10:40:25;1.60;;;1.50;;
10094;SDS011;5086;50.830;7.102;2023-04-15T10:42:57;4.20;;;1.70;;
10094;SDS011;5086;50.830;7.102;2023-04-15T10:45:25;2.95;;;1.73;;
10094;SDS011;5086;50.830;7.102;2023-04-15T10:47:56;4.07;;;2.13;;
10094;SDS011;5086;50.830;7.102;2023-04-15T10:50:26;2.55;;;1.50;;
10094;SDS011;5086;50.830;7.102;2023-04-15T10:52:56;5.32;;;2.67;;
10094;SDS011;5086;50.830;7.102;2023-04-15T10:55:23;3.10;;;2.40;;
10094;SDS011;5086;50.830;7.102;2023-04-15T10:57:51;5.60;;;2.55;;
10094;SDS011;5086;50.830;7.102;2023-04-15T11:00:20;3.15;;;2.63;;
10094;SDS011;5086;50.830;7.102;2023-04-15T11:02:51;4.20;;;2.95;;
10094;SDS011;5086;50.830;7.102;2023-04-15T11:05:22;4.78;;;2.22;;
10094;SDS011;5086;50.830;7.102;2023-04-15T11:08:11;5.55;;;2.75;;
10094;SDS011;5086;50.830;7.102;2023-04-15T11:13:20;2.95;;;2.58;;
10094;SDS011;5086;50.830;7.102;2023-04-15T11:15:49;3.53;;;2.30;;
10094;SDS011;5086;50.830;7.102;2023-04-15T11:18:17;2.80;;;2.50;;
10094;SDS011;5086;50.830;7.102;2023-04-15T11:20:47;4.40;;;2.50;;
10094;SDS011;5086;50.830;7.102;2023-04-15T11:23:17;3.38;;;2.90;;
10094;SDS011;5086;50.830;7.102;2023-04-15T11:25:45;3.42;;;2.50;;
10094;SDS011;5086;50.830;7.102;2023-04-15T11:28:12;2.58;;;2.10;;
10094;SDS011;5086;50.830;7.102;2023-04-15T11:30:39;4.03;;;2.80;;
10094;SDS011;5086;50.830;7.102;2023-04-15T11:33:08;3.40;;;2.80;;
10094;SDS011;5086;50.830;7.102;2023-04-15T11:35:36;3.15;;;2.53;;
10094;SDS011;5086;50.830;7.102;2023-04-15T11:38:05;4.35;;;3.30;;
10094;SDS011;5086;50.830;7.102;2023-04-15T11:40:36;3.85;;;2.50;;
10094;SDS011;5086;50.830;7.102;2023-04-15T11:43:04;11.40;;;3.20;;
10094;SDS011;5086;50.830;7.102;2023-04-15T11:45:32;8.25;;;2.88;;
10094;SDS011;5086;50.830;7.102;2023-04-15T11:48:09;4.80;;;2.72;;
10094;SDS011;5086;50.830;7.102;2023-04-15T11:50:37;2.65;;;2.20;;
10094;SDS011;5086;50.830;7.102;2023-04-15T11:53:05;3.35;;;1.90;;
10094;SDS011;5086;50.830;7.102;2023-04-15T11:55:41;3.75;;;2.03;;
10094;SDS011;5086;50.830;7.102;2023-04-15T11:58:10;2.17;;;1.98;;
10094;SDS011;5086;50.830;7.102;2023-04-15T12:00:39;2.72;;;2.10;;
10094;SDS011;5086;50.830;7.102;2023-04-15T12:03:13;3.35;;;2.40;;
10094;SDS011;5086;50.830;7.102;2023-04-15T12:11:39;2.60;;;2.15;;
10094;SDS011;5086;50.830;7.102;2023-04-15T12:14:10;9.57;;;2.38;;
10094;SDS011;5086;50.830;7.102;2023-04-15T12:16:42;6.22;;;2.13;;
10094;SDS011;5086;50.830;7.102;2023-04-15T12:19:11;2.35;;;2.15;;
10094;SDS011;5086;50.830;7.102;2023-04-15T12:21:39;2.30;;;2.10;;
10094;SDS011;5086;50.830;7.102;2023-04-15T12:24:07;3.75;;;2.10;;
10094;SDS011;5086;50.830;7.102;2023-04-15T12:26:42;3.13;;;2.30;;
10094;SDS011;5086;50.830;7.102;2023-04-15T12:29:10;2.67;;;2.47;;
10094;SDS011;5086;50.830;7.102;2023-04-15T12:31:45;3.00;;;2.20;;
10094;SDS011;5086;50.830;7.102;2023-04-15T12:34:14;2.60;;;2.40;;
10094;SDS011;5086;50.830;7.102;2023-04-15T12:36:41;2.75;;;2.40;;
10094;SDS011;5086;50.830;7.102;2023-04-15T12:39:08;3.45;;;2.20;;
10094;SDS011;5086;50.830;7.102;2023-04-15T12:41:34;3.15;;;2.85;;
10094;SDS011;5086;50.830;7.102;2023-04-15T12:44:03;2.60;;;2.33;;
10094;SDS011;5086;50.830;7.102;2023-04-15T12:46:31;5.90;;;2.38;;
10094;SDS011;5086;50.830;7.102;2023-04-15T12:48:58;2.92;;;2.28;;
10094;SDS011;5086;50.830;7.102;2023-04-15T12:51:25;3.38;;;2.28;;
10094;SDS011;5086;50.830;7.102;2023-04-15T12:53:52;4.70;;;2.65;;
10094;SDS011;5086;50.830;7.102;2023-04-15T12:56:19;3.00;;;2.25;;
10094;SDS011;5086;50.830;7.102;2023-04-15T12:58:46;3.55;;;2.60;;
10094;SDS011;5086;50.830;7.102;2023-04-15T13:01:14;4.22;;;3.10;;
10094;SDS011;5086;50.830;7.102;2023-04-15T13:03:41;3.63;;;2.60;;
10094;SDS011;5086;50.830;7.102;2023-04-15T13:06:09;5.93;;;2.95;;
10094;SDS011;5086;50.830;7.102;2023-04-15T13:08:36;4.10;;;2.95;;
10094;SDS011;5086;50.830;7.102;2023-04-15T13:11:02;3.08;;;2.55;;
10094;SDS011;5086;50.830;7.102;2023-04-15T13:13:30;3.28;;;2.45;;
10094;SDS011;5086;50.830;7.102;2023-04-15T13:15:56;3.85;;;2.75;;
10094;SDS011;5086;50.830;7.102;2023-04-15T13:18:25;5.28;;;2.70;;
10094;SDS011;5086;50.830;7.102;2023-04-15T13:20:53;3.35;;;2.45;;
10094;SDS011;5086;50.830;7.102;2023-04-15T13:23:20;2.92;;;2.58;;
10094;SDS011;5086;50.830;7.102;2023-04-15T13:25:47;4.85;;;3.25;;
10094;SDS011;5086;50.830;7.102;2023-04-15T13:28:14;3.90;;;2.72;;
10094;SDS011;5086;50.830;7.102;2023-04-15T13:30:40;4.25;;;2.95;;
10094;SDS011;5086;50.830;7.102;2023-04-15T13:33:08;4.75;;;2.90;;
10094;SDS011;5086;50.830;7.102;2023-04-15T13:35:36;6.47;;;3.38;;
10094;SDS011;5086;50.830;7.102;2023-04-15T13:38:04;7.35;;;3.70;;
10094;SDS011;5086;50.830;7.102;2023-04-15T13:40:31;4.65;;;3.35;;
10094;SDS011;5086;50.830;7.102;2023-04-15T13:42:59;6.50;;;3.40;;
10094;SDS011;5086;50.830;7.102;2023-04-15T13:45:27;6.10;;;4.05;;
10094;SDS011;5086;50.830;7.102;2023-04-15T13:47:54;8.88;;;4.55;;
10094;SDS011;5086;50.830;7.102;2023-04-15T13:50:21;5.38;;;3.90;;
10094;SDS011;5086;50.830;7.102;2023-04-15T13:52:49;7.88;;;4.57;;
10094;SDS011;5086;50.830;7.102;2023-04-15T13:55:16;6.97;;;3.70;;
10094;SDS011;5086;50.830;7.102;2023-04-15T13:57:43;9.88;;;4.43;;
10094;SDS011;5086;50.830;7.102;2023-04-15T14:00:11;9.23;;;5.45;;
10094;SDS011;5086;50.830;7.102;2023-04-15T14:02:38;8.57;;;5.20;;
10094;SDS011;5086;50.830;7.102;2023-04-15T14:05:05;9.13;;;5.47;;
10094;SDS011;5086;50.830;7.102;2023-04-15T14:07:32;10.00;;;6.03;;
10094;SDS011;5086;50.830;7.102;2023-04-15T14:10:01;9.20;;;5.90;;
10094;SDS011;5086;50.830;7.102;2023-04-15T14:12:29;12.57;;;5.80;;
10094;SDS011;5086;50.830;7.102;2023-04-15T14:14:56;7.97;;;4.95;;
10094;SDS011;5086;50.830;7.102;2023-04-15T14:17:23;8.57;;;5.25;;
10094;SDS011;5086;50.830;7.102;2023-04-15T14:19:50;6.78;;;4.35;;
10094;SDS011;5086;50.830;7.102;2023-04-15T14:22:17;9.70;;;5.00;;
10094;SDS011;5086;50.830;7.102;2023-04-15T14:24:44;8.55;;;4.90;;
10094;SDS011;5086;50.830;7.102;2023-04-15T14:27:14;7.18;;;4.45;;
10094;SDS011;5086;50.830;7.102;2023-04-15T14:29:40;8.55;;;5.03;;
10094;SDS011;5086;50.830;7.102;2023-04-15T14:32:07;8.60;;;5.20;;
10094;SDS011;5086;50.830;7.102;2023-04-15T14:34:34;7.30;;;4.72;;
10094;SDS011;5086;50.830;7.102;2023-04-15T14:37:01;11.52;;;5.45;;
10094;SDS011;5086;50.830;7.102;2023-04-15T14:39:29;8.20;;;5.00;;
10094;SDS011;5086;50.830;7.102;2023-04-15T14:41:56;6.65;;;3.95;;
10094;SDS011;5086;50.830;7.102;2023-04-15T14:44:32;6.70;;;3.90;;
10094;SDS011;5086;50.830;7.102;2023-04-15T14:46:59;8.55;;;4.65;;
10094;SDS011;5086;50.830;7.102;2023-04-15T14:49:28;8.13;;;4.35;;
10094;SDS011;5086;50.830;7.102;2023-04-15T14:51:55;6.88;;;4.53;;
10094;SDS011;5086;50.830;7.102;2023-04-15T14:54:23;10.43;;;5.45;;
10094;SDS011;5086;50.830;7.102;2023-04-15T14:56:50;8.77;;;4.75;;
10094;SDS011;5086;50.830;7.102;2023-04-15T15:02:24;8.18;;;4.55;;
10094;SDS011;5086;50.830;7.102;2023-04-15T15:04:51;9.45;;;4.50;;
10094;SDS011;5086;50.830;7.102;2023-04-15T15:07:30;5.32;;;3.90;;
10094;SDS011;5086;50.830;7.102;2023-04-15T15:09:57;9.57;;;4.25;;
10094;SDS011;5086;50.830;7.102;2023-04-15T15:12:23;8.32;;;4.60;;
10094;SDS011;5086;50.830;7.102;2023-04-15T15:14:53;4.80;;;3.10;;
10094;SDS011;5086;50.830;7.102;2023-04-15T15:17:20;6.97;;;3.40;;